Time;durP1;ratioP1;P1;durP2;ratioP2;P2;SDS_P1;SDS_P2;PMS_P1;PMS_P2;Temp;Humidity;BMP_temperature;BMP_pressure;BME280_temperature;BME280_humidity;BME280_pressure;Samples;Min_cycle;Max_cycle;Signal;HPM_P1;HPM_P2
2023/08/08 00:01:30;;;;;;;3.10;1.70;;;11.80;99.90;;;;;;464883;254;29180;-79
2023/08/08 00:03:31;;;;;;;1.90;1.80;;;11.70;99.90;;;;;;464896;254;29051;-79
2023/08/08 00:05:32;;;;;;;2.70;1.70;;;11.70;99.90;;;;;;464902;254;28455;-80
2023/08/08 00:07:33;;;;;;;4.87;2.10;;;11.70;99.90;;;;;;464914;254;28469;-79
2023/08/08 00:09:35;;;;;;;2.23;2.03;;;11.70;99.90;;;;;;464924;255;28383;-79
2023/08/08 00:11:36;;;;;;;2.23;1.83;;;11.70;99.90;;;;;;464924;254;28342;-79
2023/08/08 00:13:37;;;;;;;1.90;1.80;;;11.70;99.90;;;;;;464908;254;28362;-79
2023/08/08 00:15:38;;;;;;;2.67;2.20;;;11.60;99.90;;;;;;464938;254;28463;-79
2023/08/08 00:17:40;;;;;;;2.03;1.93;;;11.60;99.90;;;;;;464898;252;28581;-80
2023/08/08 00:19:41;;;;;;;2.50;2.30;;;11.60;99.90;;;;;;464891;254;28550;-79
2023/08/08 00:21:43;;;;;;;1.70;1.60;;;;;;;;;;464926;254;29189;-79
2023/08/08 00:23:45;;;;;;;1.97;1.77;;;11.60;99.90;;;;;;464901;255;27255;-79
2023/08/08 00:25:49;;;;;;;2.53;1.90;;;11.60;99.90;;;;;;464916;255;28381;-79
2023/08/08 00:27:47;;;;;;;2.07;1.97;;;11.50;99.90;;;;;;464819;256;28187;-79
2023/08/08 00:29:50;;;;;;;1.80;1.70;;;11.60;99.90;;;;;;464914;254;28652;-79
2023/08/08 00:31:50;;;;;;;1.90;1.80;;;11.50;99.90;;;;;;464884;255;28564;-79
2023/08/08 00:33:51;;;;;;;2.20;2.00;;;11.60;99.90;;;;;;464909;254;28867;-79
2023/08/08 00:35:52;;;;;;;2.93;2.27;;;11.60;99.90;;;;;;464924;254;29036;-79
2023/08/08 00:37:53;;;;;;;2.40;1.83;;;11.50;99.90;;;;;;464888;254;29140;-79
2023/08/08 00:39:55;;;;;;;2.20;1.67;;;11.60;99.90;;;;;;464878;254;28932;-79
2023/08/08 00:41:56;;;;;;;2.03;1.70;;;11.50;99.90;;;;;;464910;255;28451;-80
2023/08/08 00:43:57;;;;;;;1.90;1.80;;;11.60;99.90;;;;;;464905;254;28285;-79
2023/08/08 00:45:58;;;;;;;2.53;1.83;;;11.60;99.90;;;;;;464893;254;28420;-79
2023/08/08 00:48:00;;;;;;;2.50;1.93;;;11.60;99.90;;;;;;464891;254;28593;-79
2023/08/08 00:50:01;;;;;;;2.27;1.77;;;11.60;99.90;;;;;;464907;254;28357;-79
2023/08/08 00:52:02;;;;;;;3.00;1.67;;;11.60;99.90;;;;;;464913;256;28365;-79
2023/08/08 00:54:03;;;;;;;2.00;1.90;;;11.70;99.90;;;;;;464897;254;28519;-79
2023/08/08 00:56:05;;;;;;;6.40;2.80;;;11.70;99.90;;;;;;464891;256;28528;-79
2023/08/08 00:58:06;;;;;;;1.87;1.70;;;11.80;99.90;;;;;;464859;254;29102;-79
2023/08/08 01:00:09;;;;;;;3.00;2.17;;;11.70;99.90;;;;;;464876;254;29205;-79
2023/08/08 01:02:10;;;;;;;2.30;2.07;;;;;;;;;;464870;255;29504;-79
2023/08/08 01:04:11;;;;;;;2.60;2.20;;;11.60;99.90;;;;;;464868;255;27273;-79
2023/08/08 01:06:12;;;;;;;2.03;1.90;;;11.60;99.90;;;;;;464882;254;28559;-79
2023/08/08 01:08:13;;;;;;;3.50;1.83;;;11.60;99.90;;;;;;464898;254;28408;-79
2023/08/08 01:10:15;;;;;;;1.90;1.80;;;11.60;99.90;;;;;;464890;255;28945;-79
2023/08/08 01:12:16;;;;;;;2.60;2.20;;;11.60;99.90;;;;;;464892;254;28823;-78
2023/08/08 01:14:18;;;;;;;2.17;2.00;;;11.60;99.90;;;;;;464900;254;28717;-79
2023/08/08 01:16:18;;;;;;;2.23;2.03;;;11.60;99.90;;;;;;464901;255;28471;-79
2023/08/08 01:18:20;;;;;;;3.37;2.10;;;11.60;99.90;;;;;;464888;254;28248;-79
2023/08/08 01:20:22;;;;;;;3.63;2.10;;;11.50;99.90;;;;;;464894;254;28266;-79
2023/08/08 01:22:22;;;;;;;2.13;1.90;;;11.50;99.90;;;;;;464861;254;28403;-78
2023/08/08 01:24:25;;;;;;;1.80;1.70;;;11.60;99.90;;;;;;464864;254;28381;-79
2023/08/08 01:26:25;;;;;;;8.80;2.33;;;11.60;99.90;;;;;;464880;254;28588;-79
2023/08/08 01:28:26;;;;;;;2.60;1.90;;;11.50;99.90;;;;;;464908;256;28541;-79
2023/08/08 01:30:27;;;;;;;2.00;1.90;;;11.50;99.90;;;;;;464909;254;28354;-79
2023/08/08 01:32:28;;;;;;;4.03;1.70;;;11.50;99.90;;;;;;464878;253;28443;-79
2023/08/08 01:34:30;;;;;;;3.37;2.00;;;11.50;99.90;;;;;;464887;254;28773;-79
2023/08/08 01:36:31;;;;;;;4.93;1.80;;;11.60;99.90;;;;;;464884;251;29046;-80
2023/08/08 01:38:32;;;;;;;1.97;1.80;;;11.60;99.90;;;;;;464919;254;28957;-79
2023/08/08 01:40:33;;;;;;;2.20;2.10;;;11.60;99.90;;;;;;464926;254;28800;-80
2023/08/08 01:42:35;;;;;;;2.30;2.10;;;11.60;99.90;;;;;;464891;254;28606;-78
2023/08/08 01:44:36;;;;;;;3.87;2.30;;;11.60;99.90;;;;;;464879;254;28352;-80
2023/08/08 01:46:38;;;;;;;2.00;1.90;;;11.60;99.90;;;;;;464907;254;28416;-79
2023/08/08 01:48:38;;;;;;;2.07;1.77;;;11.50;99.90;;;;;;464924;254;28296;-79
2023/08/08 01:50:40;;;;;;;2.60;2.20;;;11.50;99.90;;;;;;464903;254;28603;-79
2023/08/08 01:52:41;;;;;;;2.53;2.10;;;11.50;99.90;;;;;;464910;254;28411;-79
2023/08/08 01:54:42;;;;;;;2.70;2.23;;;11.50;99.90;;;;;;464911;254;28697;-79
2023/08/08 01:56:43;;;;;;;2.20;2.03;;;11.60;99.90;;;;;;464904;254;28868;-79
2023/08/08 01:58:45;;;;;;;2.97;2.00;;;11.60;99.90;;;;;;464930;251;28728;-79
2023/08/08 02:00:47;;;;;;;2.30;2.20;;;11.60;99.90;;;;;;464951;254;28930;-78
2023/08/08 02:02:47;;;;;;;2.70;2.37;;;11.60;99.90;;;;;;464906;255;28957;-79
2023/08/08 02:04:48;;;;;;;2.53;2.33;;;11.70;99.90;;;;;;464915;253;28512;-79
2023/08/08 02:06:50;;;;;;;3.20;2.30;;;11.60;99.90;;;;;;464939;254;28403;-79
2023/08/08 02:08:51;;;;;;;2.80;2.10;;;11.60;99.90;;;;;;464961;254;28357;-79
2023/08/08 02:10:52;;;;;;;2.50;2.10;;;11.70;99.90;;;;;;464952;254;28692;-79
2023/08/08 02:12:53;;;;;;;2.20;2.00;;;11.70;99.90;;;;;;464898;256;28530;-79
2023/08/08 02:14:56;;;;;;;2.43;2.23;;;;;;;;;;464910;254;28270;-80
2023/08/08 02:16:57;;;;;;;5.10;3.70;;;11.70;99.90;;;;;;464911;255;27298;-80
2023/08/08 02:18:58;;;;;;;7.10;4.40;;;11.80;99.90;;;;;;464899;254;28356;-79
2023/08/08 02:21:00;;;;;;;4.20;3.40;;;11.80;99.90;;;;;;464916;254;28299;-79
2023/08/08 02:23:01;;;;;;;2.80;2.60;;;11.70;99.90;;;;;;464906;254;28292;-79
2023/08/08 02:25:02;;;;;;;3.10;2.80;;;11.70;99.90;;;;;;464989;254;28726;-79
2023/08/08 02:27:04;;;;;;;2.83;2.37;;;11.60;99.90;;;;;;464943;254;28318;-79
2023/08/08 02:29:05;;;;;;;2.47;2.27;;;11.70;99.90;;;;;;464911;252;28341;-79
2023/08/08 02:31:06;;;;;;;4.83;2.60;;;11.80;99.90;;;;;;464849;254;28533;-79
2023/08/08 02:33:07;;;;;;;2.67;2.47;;;11.70;99.90;;;;;;464908;254;28929;-79
2023/08/08 02:35:08;;;;;;;4.20;2.10;;;11.70;99.90;;;;;;464951;254;28570;-79
2023/08/08 02:37:10;;;;;;;2.37;2.10;;;11.70;99.90;;;;;;464930;255;29010;-79
2023/08/08 02:39:11;;;;;;;2.87;2.20;;;11.60;99.90;;;;;;464904;254;28838;-79
2023/08/08 02:41:12;;;;;;;2.30;2.10;;;11.60;99.90;;;;;;464865;255;28403;-79
2023/08/08 02:43:13;;;;;;;2.60;2.30;;;11.70;99.90;;;;;;464905;255;28178;-79
2023/08/08 02:45:15;;;;;;;2.27;2.17;;;11.80;99.90;;;;;;464908;254;28586;-79
2023/08/08 02:47:16;;;;;;;2.70;2.50;;;11.80;99.90;;;;;;464935;254;28513;-79
2023/08/08 02:49:17;;;;;;;2.13;2.00;;;11.80;99.90;;;;;;464888;255;28416;-79
2023/08/08 02:51:18;;;;;;;2.53;2.33;;;11.70;99.90;;;;;;464925;254;28649;-78
2023/08/08 02:53:20;;;;;;;3.17;2.27;;;11.70;99.90;;;;;;464899;255;28872;-79
2023/08/08 02:55:21;;;;;;;2.90;2.07;;;11.60;99.90;;;;;;464893;254;28468;-79
2023/08/08 02:57:22;;;;;;;2.80;2.10;;;11.60;99.90;;;;;;464911;254;28223;-79
2023/08/08 02:59:23;;;;;;;2.50;2.20;;;11.50;99.90;;;;;;464880;254;28693;-79
2023/08/08 03:01:25;;;;;;;2.80;2.10;;;11.50;99.90;;;;;;464864;254;28758;-80
2023/08/08 03:03:27;;;;;;;2.23;2.03;;;;;;;;;;464914;253;28680;-79
2023/08/08 03:05:28;;;;;;;2.57;2.37;;;11.40;99.90;;;;;;464881;255;27386;-79
2023/08/08 03:07:30;;;;;;;2.30;1.97;;;11.40;99.90;;;;;;464865;255;28386;-79
2023/08/08 03:09:31;;;;;;;2.30;2.10;;;11.40;99.90;;;;;;464849;254;28276;-79
2023/08/08 03:11:32;;;;;;;2.70;2.33;;;11.30;99.90;;;;;;464906;254;28914;-79
2023/08/08 03:13:33;;;;;;;3.50;2.40;;;11.30;99.90;;;;;;464875;254;28699;-79
2023/08/08 03:15:35;;;;;;;2.57;2.37;;;11.20;99.90;;;;;;464871;254;28829;-79
2023/08/08 03:17:36;;;;;;;2.40;2.20;;;11.20;99.90;;;;;;464871;254;28271;-79
2023/08/08 03:19:37;;;;;;;2.00;1.90;;;11.20;99.90;;;;;;464881;254;28333;-79
2023/08/08 03:21:39;;;;;;;2.37;2.10;;;11.20;99.90;;;;;;464880;254;28263;-79
2023/08/08 03:23:40;;;;;;;2.33;2.13;;;11.10;99.90;;;;;;464874;254;28300;-79
2023/08/08 03:25:41;;;;;;;4.80;2.33;;;11.10;99.90;;;;;;464855;254;28258;-79
2023/08/08 03:27:42;;;;;;;3.00;2.63;;;11.10;99.90;;;;;;464888;254;28257;-79
2023/08/08 03:29:44;;;;;;;4.13;2.67;;;11.10;99.90;;;;;;464863;254;28861;-79
2023/08/08 03:31:45;;;;;;;3.10;2.30;;;11.00;99.90;;;;;;464880;254;28779;-79
2023/08/08 03:33:47;;;;;;;3.73;2.50;;;11.00;99.90;;;;;;464875;251;28619;-79
2023/08/08 03:35:47;;;;;;;3.30;2.13;;;11.00;99.90;;;;;;464872;254;28397;-79
2023/08/08 03:37:49;;;;;;;2.93;2.63;;;11.00;99.90;;;;;;464900;254;28418;-79
2023/08/08 03:39:50;;;;;;;2.30;2.10;;;11.00;99.90;;;;;;464907;254;28190;-79
2023/08/08 03:41:51;;;;;;;4.07;2.67;;;11.00;99.90;;;;;;464903;254;28141;-78
2023/08/08 03:43:52;;;;;;;4.90;2.30;;;10.90;99.90;;;;;;464865;254;27773;-79
2023/08/08 03:45:54;;;;;;;2.63;2.40;;;10.90;99.90;;;;;;464907;254;28171;-79
2023/08/08 03:47:55;;;;;;;3.67;2.60;;;10.90;99.90;;;;;;464917;254;28143;-79
2023/08/08 03:49:57;;;;;;;3.20;2.43;;;10.90;99.90;;;;;;464888;256;28379;-79
2023/08/08 03:51:57;;;;;;;2.40;2.20;;;10.90;99.90;;;;;;464875;255;28271;-79
2023/08/08 03:53:59;;;;;;;2.80;2.60;;;10.90;99.90;;;;;;464917;254;28763;-79
2023/08/08 03:56:00;;;;;;;2.50;2.30;;;10.80;99.90;;;;;;464914;251;28831;-79
2023/08/08 03:58:01;;;;;;;3.70;2.47;;;10.80;99.90;;;;;;464954;254;28779;-79
2023/08/08 04:00:02;;;;;;;3.30;2.77;;;10.80;99.90;;;;;;464930;254;28756;-79
2023/08/08 04:02:04;;;;;;;2.60;2.40;;;10.80;99.90;;;;;;464930;254;28134;-79
2023/08/08 04:04:05;;;;;;;4.80;2.30;;;10.80;99.90;;;;;;464902;252;28278;-79
2023/08/08 04:06:06;;;;;;;3.67;2.67;;;10.70;99.90;;;;;;464920;255;28064;-79
2023/08/08 04:08:08;;;;;;;3.00;2.30;;;10.70;99.90;;;;;;464921;254;28152;-79
2023/08/08 04:10:09;;;;;;;2.60;2.40;;;10.70;99.90;;;;;;464898;254;28151;-79
2023/08/08 04:12:10;;;;;;;3.83;2.50;;;10.70;99.90;;;;;;464901;254;28168;-79
2023/08/08 04:14:11;;;;;;;3.87;2.40;;;10.70;99.90;;;;;;464875;254;28193;-79
2023/08/08 04:16:13;;;;;;;3.90;2.40;;;10.70;99.90;;;;;;464877;254;28193;-79
2023/08/08 04:18:14;;;;;;;2.70;2.40;;;10.70;99.90;;;;;;464901;254;28070;-79
2023/08/08 04:20:15;;;;;;;5.23;2.50;;;10.70;99.90;;;;;;464897;254;28611;-79
2023/08/08 04:22:17;;;;;;;3.27;2.20;;;10.70;99.90;;;;;;464906;255;28967;-79
2023/08/08 04:24:18;;;;;;;3.70;2.53;;;10.70;99.90;;;;;;464886;253;28646;-79
2023/08/08 04:26:19;;;;;;;3.27;2.23;;;10.70;99.90;;;;;;464850;256;28126;-79
2023/08/08 04:28:20;;;;;;;2.30;2.10;;;10.70;99.90;;;;;;464924;254;28163;-79
2023/08/08 04:30:21;;;;;;;3.80;2.50;;;10.60;99.90;;;;;;464925;254;28266;-79
2023/08/08 04:32:23;;;;;;;4.80;2.47;;;10.60;99.90;;;;;;464929;254;28147;-79
2023/08/08 04:34:24;;;;;;;6.13;2.50;;;10.60;99.90;;;;;;464921;254;28056;-79
2023/08/08 04:36:25;;;;;;;3.00;2.70;;;10.60;99.90;;;;;;464879;251;28178;-79
2023/08/08 04:38:26;;;;;;;4.40;2.50;;;10.60;99.90;;;;;;464912;254;28470;-79
2023/08/08 04:40:28;;;;;;;3.43;2.20;;;10.60;99.90;;;;;;464914;254;28111;-79
2023/08/08 04:42:29;;;;;;;3.13;2.47;;;10.60;99.90;;;;;;464892;254;28210;-79
2023/08/08 04:44:30;;;;;;;5.13;2.77;;;10.60;99.90;;;;;;464864;254;28685;-79
2023/08/08 04:46:31;;;;;;;5.73;2.40;;;10.60;99.90;;;;;;464890;254;28651;-79
2023/08/08 04:48:33;;;;;;;4.10;2.50;;;10.50;99.90;;;;;;464935;254;28705;-78
2023/08/08 04:50:34;;;;;;;8.20;2.60;;;10.60;99.90;;;;;;464896;254;28022;-79
2023/08/08 04:52:35;;;;;;;4.27;3.10;;;10.50;99.90;;;;;;464882;254;27937;-79
2023/08/08 04:54:36;;;;;;;2.97;2.60;;;10.60;99.90;;;;;;464895;254;28157;-79
2023/08/08 04:56:38;;;;;;;3.13;2.20;;;10.60;99.90;;;;;;464925;254;28266;-79
2023/08/08 04:58:39;;;;;;;4.03;2.50;;;10.60;99.90;;;;;;464925;254;28096;-79
2023/08/08 05:00:40;;;;;;;3.77;2.57;;;10.60;99.90;;;;;;464910;254;28261;-79
2023/08/08 05:02:41;;;;;;;2.37;2.17;;;10.60;99.90;;;;;;464895;255;28716;-78
2023/08/08 05:04:43;;;;;;;4.13;2.33;;;10.60;99.90;;;;;;464871;256;29370;-79
2023/08/08 05:06:44;;;;;;;4.07;2.50;;;10.60;99.90;;;;;;464922;254;28372;-79
2023/08/08 05:08:45;;;;;;;2.57;2.30;;;10.70;99.90;;;;;;464892;254;28199;-79
2023/08/08 05:10:46;;;;;;;3.40;2.40;;;10.70;99.90;;;;;;464904;253;28267;-79
2023/08/08 05:12:48;;;;;;;4.50;2.53;;;10.70;99.90;;;;;;464851;254;28212;-79
2023/08/08 05:14:49;;;;;;;2.40;2.13;;;10.80;99.90;;;;;;464889;254;27921;-79
2023/08/08 05:16:50;;;;;;;4.10;2.97;;;10.80;99.90;;;;;;464873;254;28304;-79
2023/08/08 05:18:51;;;;;;;5.47;3.40;;;10.80;99.90;;;;;;464862;254;28065;-78
2023/08/08 05:20:53;;;;;;;4.83;2.30;;;10.80;99.90;;;;;;464884;254;28231;-79
2023/08/08 05:22:54;;;;;;;3.97;2.63;;;10.80;99.90;;;;;;464867;254;28263;-79
2023/08/08 05:24:55;;;;;;;3.90;2.77;;;10.90;99.90;;;;;;464883;256;28760;-79
2023/08/08 05:26:57;;;;;;;4.10;2.60;;;10.90;99.90;;;;;;464874;254;28682;-79
2023/08/08 05:28:58;;;;;;;2.67;2.47;;;11.00;99.90;;;;;;464889;254;28316;-79
2023/08/08 05:30:59;;;;;;;3.50;2.90;;;11.00;99.90;;;;;;464905;253;28270;-78
2023/08/08 05:33:00;;;;;;;4.13;3.30;;;11.00;99.90;;;;;;464895;253;28300;-79
2023/08/08 05:35:04;;;;;;;7.37;3.13;;;11.10;99.90;;;;;;464916;254;28150;-79
2023/08/08 05:37:04;;;;;;;3.53;2.97;;;;;;;;;;464871;255;28151;-79
2023/08/08 05:39:06;;;;;;;3.27;2.90;;;11.10;99.90;;;;;;464904;255;27802;-79
2023/08/08 05:41:06;;;;;;;2.87;2.60;;;11.20;99.90;;;;;;464911;254;28394;-80
2023/08/08 05:43:09;;;;;;;3.60;2.77;;;;;;;;;;464942;254;28262;-79
2023/08/08 05:45:10;;;;;;;2.70;2.40;;;11.30;99.90;;;;;;464797;256;27367;-78
2023/08/08 05:47:11;;;;;;;3.17;2.97;;;11.40;99.90;;;;;;464924;254;28641;-79
2023/08/08 05:49:13;;;;;;;2.30;2.10;;;11.40;99.90;;;;;;464885;254;28771;-79
2023/08/08 05:51:14;;;;;;;5.10;2.37;;;11.40;99.90;;;;;;464914;254;28750;-80
2023/08/08 05:53:15;;;;;;;5.90;2.93;;;11.50;99.90;;;;;;464902;254;28341;-79
2023/08/08 05:55:16;;;;;;;8.77;3.90;;;11.50;99.90;;;;;;464884;254;28330;-79
2023/08/08 05:57:18;;;;;;;4.73;3.17;;;11.60;99.90;;;;;;464867;254;28447;-79
2023/08/08 05:59:19;;;;;;;5.53;3.30;;;11.60;99.90;;;;;;464873;254;28560;-79
2023/08/08 06:01:20;;;;;;;5.83;3.00;;;11.70;99.90;;;;;;464905;254;28488;-79
2023/08/08 06:03:21;;;;;;;4.40;3.20;;;11.80;99.90;;;;;;464914;254;28501;-79
2023/08/08 06:05:23;;;;;;;3.50;3.10;;;11.80;99.90;;;;;;464907;255;28393;-79
2023/08/08 06:07:24;;;;;;;4.13;2.30;;;11.90;99.90;;;;;;464881;254;28397;-79
2023/08/08 06:09:25;;;;;;;5.20;2.80;;;11.90;99.90;;;;;;464906;254;28494;-78
2023/08/08 06:11:26;;;;;;;3.70;2.77;;;11.90;99.90;;;;;;464915;254;28960;-78
2023/08/08 06:13:28;;;;;;;4.77;3.20;;;12.00;99.90;;;;;;464910;254;28659;-78
2023/08/08 06:15:29;;;;;;;3.13;2.50;;;12.00;99.90;;;;;;464896;253;29014;-79
2023/08/08 06:17:30;;;;;;;6.00;2.97;;;12.10;99.90;;;;;;464889;254;28600;-79
2023/08/08 06:19:31;;;;;;;5.10;2.80;;;12.10;99.90;;;;;;464906;254;28227;-79
2023/08/08 06:21:33;;;;;;;3.70;2.90;;;12.10;99.90;;;;;;464912;254;28228;-79
2023/08/08 06:23:34;;;;;;;8.33;3.00;;;12.20;99.90;;;;;;464886;253;28588;-79
2023/08/08 06:25:35;;;;;;;3.20;2.70;;;12.20;99.90;;;;;;464858;254;28414;-79
2023/08/08 06:27:36;;;;;;;3.23;2.50;;;12.20;99.90;;;;;;464888;254;28278;-79
2023/08/08 06:29:38;;;;;;;3.23;2.83;;;12.20;99.90;;;;;;464883;254;28616;-79
2023/08/08 06:31:39;;;;;;;2.80;2.50;;;12.30;99.90;;;;;;464914;254;28508;-79
2023/08/08 06:33:40;;;;;;;6.90;2.73;;;12.30;99.90;;;;;;464892;254;28714;-79
2023/08/08 06:35:41;;;;;;;3.13;2.80;;;12.30;99.90;;;;;;464870;254;29029;-79
2023/08/08 06:37:43;;;;;;;2.90;2.70;;;12.40;99.90;;;;;;464872;256;29710;-79
2023/08/08 06:39:44;;;;;;;3.40;2.83;;;12.50;99.90;;;;;;464861;255;28913;-79
2023/08/08 06:41:45;;;;;;;3.40;2.47;;;12.50;99.90;;;;;;464883;254;28573;-79
2023/08/08 06:43:46;;;;;;;3.60;2.83;;;12.50;99.90;;;;;;464874;254;28639;-80
2023/08/08 06:45:48;;;;;;;4.00;2.73;;;12.60;99.90;;;;;;464826;252;28646;-79
2023/08/08 06:47:49;;;;;;;6.37;2.77;;;12.60;99.90;;;;;;464867;254;28171;-79
2023/08/08 06:49:50;;;;;;;2.87;2.50;;;12.60;99.90;;;;;;464865;254;28530;-79
2023/08/08 06:51:51;;;;;;;5.00;2.63;;;12.70;99.90;;;;;;464904;254;28665;-79
2023/08/08 06:53:53;;;;;;;2.30;2.10;;;12.80;99.90;;;;;;464910;254;28585;-79
2023/08/08 06:55:54;;;;;;;4.47;2.40;;;12.80;99.90;;;;;;464879;254;28421;-79
2023/08/08 06:57:55;;;;;;;2.20;1.80;;;12.80;99.90;;;;;;464896;252;29451;-79
2023/08/08 06:59:56;;;;;;;2.43;2.10;;;12.90;99.90;;;;;;464906;254;28719;-80
2023/08/08 07:01:58;;;;;;;4.70;2.83;;;13.00;99.90;;;;;;464914;254;28202;-79
2023/08/08 07:03:59;;;;;;;3.13;2.40;;;13.10;99.90;;;;;;464897;254;28607;-79
2023/08/08 07:06:00;;;;;;;7.10;2.20;;;13.10;99.90;;;;;;464868;255;28457;-80
2023/08/08 07:08:01;;;;;;;3.40;2.30;;;13.20;99.90;;;;;;464939;254;28482;-79
2023/08/08 07:10:03;;;;;;;6.03;2.30;;;13.30;99.90;;;;;;464872;254;28473;-79
2023/08/08 07:12:04;;;;;;;4.70;2.40;;;13.30;99.90;;;;;;464911;254;28804;-80
2023/08/08 07:14:05;;;;;;;3.03;2.20;;;13.30;99.90;;;;;;464914;254;29039;-79
2023/08/08 07:16:06;;;;;;;3.30;2.50;;;13.30;99.90;;;;;;464874;255;28870;-79
2023/08/08 07:18:08;;;;;;;3.17;2.10;;;13.50;99.90;;;;;;464941;254;28798;-79
2023/08/08 07:20:13;;;;;;;2.93;2.40;;;13.60;99.90;;;;;;464955;254;28394;-79
2023/08/08 07:22:10;;;;;;;3.60;2.70;;;13.60;99.90;;;;;;464883;254;28527;-80
2023/08/08 07:24:12;;;;;;;3.53;2.23;;;13.80;99.90;;;;;;464914;253;28245;-81
2023/08/08 07:26:13;;;;;;;4.07;2.13;;;13.90;99.90;;;;;;464888;254;28327;-79
2023/08/08 07:28:14;;;;;;;4.67;2.50;;;14.10;99.90;;;;;;464897;254;29056;-79
2023/08/08 07:30:15;;;;;;;2.67;2.20;;;14.10;99.90;;;;;;464905;254;28271;-80
2023/08/08 07:32:17;;;;;;;3.73;2.20;;;14.10;99.90;;;;;;464882;254;28415;-79
2023/08/08 07:34:18;;;;;;;3.80;2.30;;;14.20;99.90;;;;;;464902;255;28566;-80
2023/08/08 07:36:19;;;;;;;3.03;2.40;;;14.20;99.90;;;;;;464901;254;29031;-80
2023/08/08 07:38:20;;;;;;;2.23;1.87;;;14.20;99.90;;;;;;464926;254;29063;-79
2023/08/08 07:40:21;;;;;;;2.80;2.10;;;14.30;99.90;;;;;;464897;252;28483;-80
2023/08/08 07:42:23;;;;;;;3.10;1.87;;;14.30;99.90;;;;;;464896;254;28592;-80
2023/08/08 07:44:24;;;;;;;4.00;1.80;;;14.30;99.90;;;;;;464898;254;28619;-79
2023/08/08 07:46:25;;;;;;;2.70;1.90;;;14.40;99.90;;;;;;464907;254;28954;-79
2023/08/08 07:48:26;;;;;;;3.80;2.23;;;14.50;99.90;;;;;;464920;255;28530;-79
2023/08/08 07:50:28;;;;;;;4.50;2.30;;;14.60;99.90;;;;;;464887;254;28332;-79
2023/08/08 07:52:29;;;;;;;4.73;2.80;;;14.60;99.90;;;;;;464917;254;28564;-79
2023/08/08 07:54:30;;;;;;;2.37;2.10;;;14.70;99.90;;;;;;464862;254;29497;-80
2023/08/08 07:56:31;;;;;;;4.70;2.57;;;14.60;99.90;;;;;;464914;254;29364;-80
2023/08/08 07:58:33;;;;;;;3.10;2.00;;;14.70;99.90;;;;;;464939;254;29493;-79
2023/08/08 08:00:34;;;;;;;6.10;2.07;;;14.70;99.90;;;;;;464898;254;28987;-80
2023/08/08 08:02:36;;;;;;;4.37;2.07;;;14.80;99.90;;;;;;464693;254;28961;-79
2023/08/08 08:04:36;;;;;;;2.93;1.93;;;14.80;99.90;;;;;;464911;254;28917;-80
2023/08/08 08:06:38;;;;;;;2.90;2.00;;;14.80;99.90;;;;;;464882;254;28919;-80
2023/08/08 08:08:39;;;;;;;3.27;2.00;;;14.80;99.90;;;;;;464885;254;29068;-79
2023/08/08 08:10:40;;;;;;;6.27;2.10;;;14.80;99.90;;;;;;464877;254;28532;-79
2023/08/08 08:12:41;;;;;;;2.60;1.87;;;14.80;99.90;;;;;;464897;254;28959;-79
2023/08/08 08:14:43;;;;;;;4.73;1.93;;;14.80;99.90;;;;;;464871;254;28910;-80
2023/08/08 08:16:44;;;;;;;5.03;2.00;;;14.90;99.90;;;;;;464903;255;28982;-80
2023/08/08 08:18:45;;;;;;;5.50;1.87;;;15.00;99.90;;;;;;464872;254;29234;-79
2023/08/08 08:20:47;;;;;;;3.27;1.90;;;15.00;99.90;;;;;;464898;254;29349;-79
2023/08/08 08:22:48;;;;;;;2.13;1.93;;;15.10;99.90;;;;;;464881;254;29428;-79
2023/08/08 08:24:50;;;;;;;3.47;1.97;;;15.10;99.90;;;;;;464898;255;28705;-79
2023/08/08 08:26:50;;;;;;;3.90;2.03;;;15.30;99.90;;;;;;464892;250;28991;-79
2023/08/08 08:28:51;;;;;;;3.13;1.90;;;15.30;99.90;;;;;;464894;254;29074;-79
2023/08/08 08:30:53;;;;;;;2.73;1.80;;;15.30;99.90;;;;;;464923;254;28904;-79
2023/08/08 08:32:56;;;;;;;2.80;1.77;;;15.30;99.90;;;;;;464919;254;28931;-80
2023/08/08 08:34:55;;;;;;;3.10;1.60;;;15.40;99.90;;;;;;464916;254;29303;-80
2023/08/08 08:36:57;;;;;;;1.80;1.70;;;15.40;99.90;;;;;;464914;256;29002;-80
2023/08/08 08:38:58;;;;;;;2.40;1.97;;;15.40;99.90;;;;;;464886;254;28993;-80
2023/08/08 08:40:59;;;;;;;5.20;1.70;;;15.50;99.90;;;;;;464929;254;28898;-80
2023/08/08 08:43:00;;;;;;;3.43;1.93;;;15.60;99.90;;;;;;464916;254;29468;-79
2023/08/08 08:45:02;;;;;;;2.53;1.83;;;15.60;99.90;;;;;;464944;255;29504;-80
2023/08/08 08:47:03;;;;;;;2.57;1.80;;;15.70;99.90;;;;;;464976;251;29369;-80
2023/08/08 08:49:04;;;;;;;2.27;2.03;;;15.60;99.90;;;;;;464940;254;29511;-80
2023/08/08 08:51:05;;;;;;;3.13;1.77;;;15.70;99.90;;;;;;464830;256;28888;-79
2023/08/08 08:53:07;;;;;;;3.40;2.00;;;15.80;99.90;;;;;;464925;254;28945;-79
2023/08/08 08:55:08;;;;;;;5.20;1.83;;;15.90;99.90;;;;;;464971;255;28956;-79
2023/08/08 08:57:09;;;;;;;2.50;2.10;;;15.90;99.90;;;;;;464970;254;28975;-79
2023/08/08 08:59:10;;;;;;;2.03;1.83;;;16.00;99.90;;;;;;464955;254;28969;-79
2023/08/08 09:01:12;;;;;;;2.00;1.60;;;15.90;99.90;;;;;;464919;253;28907;-80
2023/08/08 09:03:13;;;;;;;4.10;1.90;;;16.00;99.90;;;;;;464916;254;28937;-80
2023/08/08 09:05:14;;;;;;;2.43;1.80;;;16.00;99.90;;;;;;464960;254;28952;-79
2023/08/08 09:07:15;;;;;;;2.20;1.60;;;16.10;99.90;;;;;;464928;253;28925;-80
2023/08/08 09:09:17;;;;;;;4.80;1.77;;;16.20;99.90;;;;;;464931;254;29427;-79
2023/08/08 09:11:18;;;;;;;2.87;1.70;;;16.20;99.90;;;;;;464913;254;29349;-79
2023/08/08 09:13:20;;;;;;;4.70;2.03;;;16.30;99.90;;;;;;464939;254;29419;-80
2023/08/08 09:15:20;;;;;;;3.60;1.70;;;16.30;99.90;;;;;;464905;255;28994;-79
2023/08/08 09:17:22;;;;;;;5.90;1.70;;;16.30;99.90;;;;;;464944;254;28921;-79
2023/08/08 09:19:23;;;;;;;2.40;1.70;;;16.30;99.90;;;;;;464931;254;29011;-80
2023/08/08 09:21:24;;;;;;;4.10;2.00;;;16.40;99.90;;;;;;464902;254;29006;-80
2023/08/08 09:23:25;;;;;;;3.43;1.67;;;16.50;99.90;;;;;;464914;254;28931;-79
2023/08/08 09:25:27;;;;;;;4.23;2.13;;;16.50;99.90;;;;;;464958;254;29058;-79
2023/08/08 09:27:28;;;;;;;4.93;2.13;;;16.50;99.90;;;;;;464945;254;29016;-80
2023/08/08 09:29:29;;;;;;;3.20;1.90;;;16.50;99.90;;;;;;464892;254;28920;-79
2023/08/08 09:31:30;;;;;;;2.83;1.90;;;16.60;99.90;;;;;;464931;256;28963;-79
2023/08/08 09:33:32;;;;;;;2.10;1.90;;;16.50;99.90;;;;;;464917;254;29458;-79
2023/08/08 09:35:33;;;;;;;3.93;1.80;;;16.50;99.90;;;;;;464946;254;29419;-78
2023/08/08 09:37:34;;;;;;;2.23;2.00;;;16.40;99.90;;;;;;464946;254;29386;-80
2023/08/08 09:39:35;;;;;;;3.47;1.90;;;16.30;99.90;;;;;;464039;254;47553;-80
2023/08/08 09:41:37;;;;;;;4.13;1.90;;;16.30;99.90;;;;;;464944;256;27537;-79
2023/08/08 09:43:38;;;;;;;4.20;2.07;;;16.50;99.90;;;;;;464937;255;28944;-80
2023/08/08 09:45:41;;;;;;;5.63;1.80;;;16.60;99.90;;;;;;464985;254;29077;-79
2023/08/08 09:47:41;;;;;;;3.57;1.90;;;16.60;99.90;;;;;;464880;254;28958;-80
2023/08/08 09:49:42;;;;;;;2.43;1.50;;;16.50;99.90;;;;;;464888;254;28944;-80
2023/08/08 09:51:43;;;;;;;2.63;1.87;;;16.60;99.90;;;;;;464925;254;28894;-80
2023/08/08 09:53:44;;;;;;;2.13;1.90;;;16.70;99.90;;;;;;464937;254;29448;-79
2023/08/08 09:55:45;;;;;;;2.83;1.93;;;16.70;99.90;;;;;;464923;254;29425;-80
2023/08/08 09:57:47;;;;;;;4.30;1.90;;;16.70;99.90;;;;;;464934;254;29363;-79
2023/08/08 09:59:48;;;;;;;3.30;2.00;;;16.80;99.90;;;;;;464914;254;29387;-79
2023/08/08 10:01:49;;;;;;;3.33;1.70;;;16.90;99.90;;;;;;464846;256;28953;-79
2023/08/08 10:03:50;;;;;;;3.20;1.60;;;17.10;99.90;;;;;;464958;254;29054;-80
2023/08/08 10:05:52;;;;;;;1.83;1.43;;;17.10;99.90;;;;;;464916;255;28942;-80
2023/08/08 10:07:53;;;;;;;2.40;1.90;;;17.10;99.90;;;;;;464900;256;28916;-79
2023/08/08 10:09:54;;;;;;;3.07;1.70;;;17.10;99.90;;;;;;464942;254;28956;-79
2023/08/08 10:11:55;;;;;;;2.47;1.70;;;17.00;99.90;;;;;;464922;254;28978;-80
2023/08/08 10:13:57;;;;;;;2.43;1.67;;;17.00;99.90;;;;;;464936;254;28998;-79
2023/08/08 10:15:58;;;;;;;3.17;2.07;;;16.90;99.90;;;;;;464935;254;28949;-80
2023/08/08 10:17:59;;;;;;;4.33;1.77;;;17.00;99.90;;;;;;464939;254;29302;-79
2023/08/08 10:20:09;;;;;;;3.00;1.83;;;17.10;99.90;;;;;;464941;254;29501;-80
2023/08/08 10:22:02;;;;;;;3.00;2.00;;;17.00;99.90;;;;;;464917;254;29523;-79
2023/08/08 10:24:03;;;;;;;2.00;1.70;;;17.00;99.90;;;;;;465028;254;29492;-79
2023/08/08 10:26:04;;;;;;;5.83;1.93;;;17.10;99.90;;;;;;464990;254;28978;-80
2023/08/08 10:28:05;;;;;;;2.73;1.77;;;17.20;99.90;;;;;;464958;254;28911;-80
2023/08/08 10:30:10;;;;;;;2.53;1.73;;;17.30;99.90;;;;;;464921;254;28962;-79
2023/08/08 10:32:11;;;;;;;3.40;1.60;;;17.40;99.90;;;;;;464925;254;29025;-80